sensor_id;sensor_type;location;lat;lon;timestamp;temperature;humidity
21238;DHT22;10777;50.828;3.264;2022-12-07T00:00:30;7.40;99.90
21238;DHT22;10777;50.828;3.264;2022-12-07T00:02:55;6.90;99.90
21238;DHT22;10777;50.828;3.264;2022-12-07T00:05:21;6.60;99.90
21238;DHT22;10777;50.828;3.264;2022-12-07T00:07:46;6.40;99.90
21238;DHT22;10777;50.828;3.264;2022-12-07T00:10:12;6.40;99.90
21238;DHT22;10777;50.828;3.264;2022-12-07T00:12:38;6.40;99.90
21238;DHT22;10777;50.828;3.264;2022-12-07T00:15:04;6.50;99.90
21238;DHT22;10777;50.828;3.264;2022-12-07T00:17:29;6.50;99.90
21238;DHT22;10777;50.828;3.264;2022-12-07T00:19:55;6.30;99.90
21238;DHT22;10777;50.828;3.264;2022-12-07T00:22:21;6.10;99.90
21238;DHT22;10777;50.828;3.264;2022-12-07T00:24:46;6.20;99.90
21238;DHT22;10777;50.828;3.264;2022-12-07T00:27:12;6.30;99.90
21238;DHT22;10777;50.828;3.264;2022-12-07T00:29:37;6.40;99.90
21238;DHT22;10777;50.828;3.264;2022-12-07T00:32:03;6.40;99.90
21238;DHT22;10777;50.828;3.264;2022-12-07T00:34:29;6.50;99.90
21238;DHT22;10777;50.828;3.264;2022-12-07T00:36:55;6.70;99.90
21238;DHT22;10777;50.828;3.264;2022-12-07T00:39:21;6.90;99.90
21238;DHT22;10777;50.828;3.264;2022-12-07T00:41:46;6.90;99.90
21238;DHT22;10777;50.828;3.264;2022-12-07T00:44:12;7.10;99.90
21238;DHT22;10777;50.828;3.264;2022-12-07T00:46:38;7.10;99.90
21238;DHT22;10777;50.828;3.264;2022-12-07T00:49:04;7.00;99.90
21238;DHT22;10777;50.828;3.264;2022-12-07T00:51:29;7.00;99.90
21238;DHT22;10777;50.828;3.264;2022-12-07T00:53:55;6.60;99.90
21238;DHT22;10777;50.828;3.264;2022-12-07T00:56:23;6.60;99.90
21238;DHT22;10777;50.828;3.264;2022-12-07T00:58:52;6.70;99.90
21238;DHT22;10777;50.828;3.264;2022-12-07T01:01:18;6.90;99.90
21238;DHT22;10777;50.828;3.264;2022-12-07T01:03:43;7.30;99.90
21238;DHT22;10777;50.828;3.264;2022-12-07T01:06:09;7.50;99.90
21238;DHT22;10777;50.828;3.264;2022-12-07T01:08:39;7.60;99.90
21238;DHT22;10777;50.828;3.264;2022-12-07T01:11:07;7.50;99.90
21238;DHT22;10777;50.828;3.264;2022-12-07T01:13:34;7.50;99.90
21238;DHT22;10777;50.828;3.264;2022-12-07T01:16:03;7.40;99.90
21238;DHT22;10777;50.828;3.264;2022-12-07T01:18:33;7.20;99.90
21238;DHT22;10777;50.828;3.264;2022-12-07T01:21:02;7.30;99.90
21238;DHT22;10777;50.828;3.264;2022-12-07T01:23:29;7.20;99.90
21238;DHT22;10777;50.828;3.264;2022-12-07T01:25:56;7.20;99.90
21238;DHT22;10777;50.828;3.264;2022-12-07T01:28:23;6.90;99.90
21238;DHT22;10777;50.828;3.264;2022-12-07T01:31:02;7.10;99.90
21238;DHT22;10777;50.828;3.264;2022-12-07T01:33:29;7.00;99.90
21238;DHT22;10777;50.828;3.264;2022-12-07T01:36:01;7.10;99.90
21238;DHT22;10777;50.828;3.264;2022-12-07T01:38:29;7.40;99.90
21238;DHT22;10777;50.828;3.264;2022-12-07T01:40:56;7.40;99.90
21238;DHT22;10777;50.828;3.264;2022-12-07T01:43:22;6.90;99.90
21238;DHT22;10777;50.828;3.264;2022-12-07T01:45:49;6.60;99.90
21238;DHT22;10777;50.828;3.264;2022-12-07T01:48:17;6.90;99.90
21238;DHT22;10777;50.828;3.264;2022-12-07T01:50:45;7.10;99.90
21238;DHT22;10777;50.828;3.264;2022-12-07T01:53:13;7.30;99.90
21238;DHT22;10777;50.828;3.264;2022-12-07T01:55:42;7.50;99.90
21238;DHT22;10777;50.828;3.264;2022-12-07T01:58:10;7.50;99.90
21238;DHT22;10777;50.828;3.264;2022-12-07T02:00:37;7.60;99.90
21238;DHT22;10777;50.828;3.264;2022-12-07T02:03:09;7.30;99.90
21238;DHT22;10777;50.828;3.264;2022-12-07T02:05:38;7.30;99.90
21238;DHT22;10777;50.828;3.264;2022-12-07T02:08:06;7.40;99.90
21238;DHT22;10777;50.828;3.264;2022-12-07T02:10:32;7.50;99.90
21238;DHT22;10777;50.828;3.264;2022-12-07T02:13:03;7.50;99.90
21238;DHT22;10777;50.828;3.264;2022-12-07T02:15:38;7.40;99.90
21238;DHT22;10777;50.828;3.264;2022-12-07T02:18:16;7.60;99.90
21238;DHT22;10777;50.828;3.264;2022-12-07T02:20:54;7.80;99.90
21238;DHT22;10777;50.828;3.264;2022-12-07T02:23:38;7.90;99.90
21238;DHT22;10777;50.828;3.264;2022-12-07T02:26:32;8.00;99.90
21238;DHT22;10777;50.828;3.264;2022-12-07T02:29:17;7.80;99.90
21238;DHT22;10777;50.828;3.264;2022-12-07T02:31:56;7.30;99.90
21238;DHT22;10777;50.828;3.264;2022-12-07T02:34:35;7.40;99.90
21238;DHT22;10777;50.828;3.264;2022-12-07T02:37:10;7.60;99.90
21238;DHT22;10777;50.828;3.264;2022-12-07T02:39:50;7.80;99.90
21238;DHT22;10777;50.828;3.264;2022-12-07T02:42:21;7.80;99.90
21238;DHT22;10777;50.828;3.264;2022-12-07T02:44:49;7.80;99.90
21238;DHT22;10777;50.828;3.264;2022-12-07T02:47:17;7.80;99.90
21238;DHT22;10777;50.828;3.264;2022-12-07T02:49:45;7.70;99.90
21238;DHT22;10777;50.828;3.264;2022-12-07T02:52:11;7.60;99.90
21238;DHT22;10777;50.828;3.264;2022-12-07T02:54:37;7.70;99.90
21238;DHT22;10777;50.828;3.264;2022-12-07T02:57:32;7.90;99.90
21238;DHT22;10777;50.828;3.264;2022-12-07T03:00:04;7.80;99.90
21238;DHT22;10777;50.828;3.264;2022-12-07T03:02:53;7.70;99.90
21238;DHT22;10777;50.828;3.264;2022-12-07T03:05:44;7.90;99.90
21238;DHT22;10777;50.828;3.264;2022-12-07T03:08:42;7.70;99.90
21238;DHT22;10777;50.828;3.264;2022-12-07T03:11:14;7.90;99.90
21238;DHT22;10777;50.828;3.264;2022-12-07T03:16:37;7.80;99.90
21238;DHT22;10777;50.828;3.264;2022-12-07T03:19:13;7.80;99.90
21238;DHT22;10777;50.828;3.264;2022-12-07T03:21:44;7.60;99.90
21238;DHT22;10777;50.828;3.264;2022-12-07T03:24:15;7.30;99.90
21238;DHT22;10777;50.828;3.264;2022-12-07T03:26:51;7.50;99.90
21238;DHT22;10777;50.828;3.264;2022-12-07T03:29:30;7.50;99.90
21238;DHT22;10777;50.828;3.264;2022-12-07T03:32:04;7.40;99.90
21238;DHT22;10777;50.828;3.264;2022-12-07T03:34:34;7.40;99.90
21238;DHT22;10777;50.828;3.264;2022-12-07T03:37:05;7.40;99.90
21238;DHT22;10777;50.828;3.264;2022-12-07T03:39:44;7.50;99.90
21238;DHT22;10777;50.828;3.264;2022-12-07T03:42:10;7.60;99.90
21238;DHT22;10777;50.828;3.264;2022-12-07T03:44:37;7.90;99.90
21238;DHT22;10777;50.828;3.264;2022-12-07T03:47:11;7.60;99.90
21238;DHT22;10777;50.828;3.264;2022-12-07T03:49:44;7.60;99.90
21238;DHT22;10777;50.828;3.264;2022-12-07T03:52:33;7.40;99.90
21238;DHT22;10777;50.828;3.264;2022-12-07T03:55:09;7.80;99.90
21238;DHT22;10777;50.828;3.264;2022-12-07T03:57:38;8.20;99.90
21238;DHT22;10777;50.828;3.264;2022-12-07T04:00:06;8.20;99.90
21238;DHT22;10777;50.828;3.264;2022-12-07T04:02:32;8.40;99.90
21238;DHT22;10777;50.828;3.264;2022-12-07T04:04:58;8.40;99.90
21238;DHT22;10777;50.828;3.264;2022-12-07T04:07:24;8.10;99.90
21238;DHT22;10777;50.828;3.264;2022-12-07T04:09:50;8.00;99.90
21238;DHT22;10777;50.828;3.264;2022-12-07T04:12:16;8.10;99.90
21238;DHT22;10777;50.828;3.264;2022-12-07T04:14:42;7.80;99.90
21238;DHT22;10777;50.828;3.264;2022-12-07T04:17:08;8.00;99.90
21238;DHT22;10777;50.828;3.264;2022-12-07T04:19:34;7.90;99.90
21238;DHT22;10777;50.828;3.264;2022-12-07T04:22:02;7.50;99.90
21238;DHT22;10777;50.828;3.264;2022-12-07T04:24:28;7.40;99.90
21238;DHT22;10777;50.828;3.264;2022-12-07T04:26:54;7.80;99.90
21238;DHT22;10777;50.828;3.264;2022-12-07T04:29:21;7.60;99.90
21238;DHT22;10777;50.828;3.264;2022-12-07T04:31:47;7.20;99.90
21238;DHT22;10777;50.828;3.264;2022-12-07T04:34:13;7.30;99.90
21238;DHT22;10777;50.828;3.264;2022-12-07T04:36:39;7.50;99.90
21238;DHT22;10777;50.828;3.264;2022-12-07T04:39:06;7.50;99.90
21238;DHT22;10777;50.828;3.264;2022-12-07T04:41:32;7.70;99.90
21238;DHT22;10777;50.828;3.264;2022-12-07T04:44:02;7.60;99.90
21238;DHT22;10777;50.828;3.264;2022-12-07T04:46:30;7.50;99.90
21238;DHT22;10777;50.828;3.264;2022-12-07T04:48:56;7.60;99.90
21238;DHT22;10777;50.828;3.264;2022-12-07T04:51:24;7.50;99.90
21238;DHT22;10777;50.828;3.264;2022-12-07T04:53:51;7.80;99.90
21238;DHT22;10777;50.828;3.264;2022-12-07T04:56:17;7.80;99.90
21238;DHT22;10777;50.828;3.264;2022-12-07T04:58:44;7.80;99.90
21238;DHT22;10777;50.828;3.264;2022-12-07T05:01:11;7.90;99.90
21238;DHT22;10777;50.828;3.264;2022-12-07T05:03:37;8.10;99.90
21238;DHT22;10777;50.828;3.264;2022-12-07T05:06:04;8.30;99.90
21238;DHT22;10777;50.828;3.264;2022-12-07T05:08:29;8.30;99.90
21238;DHT22;10777;50.828;3.264;2022-12-07T05:10:55;8.30;99.90
21238;DHT22;10777;50.828;3.264;2022-12-07T05:13:21;8.40;99.90
21238;DHT22;10777;50.828;3.264;2022-12-07T05:15:47;8.70;99.90
21238;DHT22;10777;50.828;3.264;2022-12-07T05:18:13;8.40;99.90
21238;DHT22;10777;50.828;3.264;2022-12-07T05:20:40;7.80;99.90
21238;DHT22;10777;50.828;3.264;2022-12-07T05:23:06;7.70;99.90
21238;DHT22;10777;50.828;3.264;2022-12-07T05:25:31;7.70;99.90
21238;DHT22;10777;50.828;3.264;2022-12-07T05:27:57;8.10;99.90
21238;DHT22;10777;50.828;3.264;2022-12-07T05:30:24;8.20;99.90
21238;DHT22;10777;50.828;3.264;2022-12-07T05:32:51;7.70;99.90
21238;DHT22;10777;50.828;3.264;2022-12-07T05:35:17;7.90;99.90
21238;DHT22;10777;50.828;3.264;2022-12-07T05:37:43;8.00;99.90
21238;DHT22;10777;50.828;3.264;2022-12-07T05:40:09;7.80;99.90
21238;DHT22;10777;50.828;3.264;2022-12-07T05:42:35;7.80;99.90
21238;DHT22;10777;50.828;3.264;2022-12-07T05:45:01;7.90;99.90
21238;DHT22;10777;50.828;3.264;2022-12-07T05:47:27;7.90;99.90
21238;DHT22;10777;50.828;3.264;2022-12-07T05:49:52;8.20;99.90
21238;DHT22;10777;50.828;3.264;2022-12-07T05:52:18;8.30;99.90
21238;DHT22;10777;50.828;3.264;2022-12-07T05:54:44;8.00;99.90
21238;DHT22;10777;50.828;3.264;2022-12-07T05:57:09;8.20;99.90
21238;DHT22;10777;50.828;3.264;2022-12-07T05:59:36;8.30;99.90
21238;DHT22;10777;50.828;3.264;2022-12-07T06:02:05;8.30;99.90
21238;DHT22;10777;50.828;3.264;2022-12-07T06:04:34;8.00;99.90
21238;DHT22;10777;50.828;3.264;2022-12-07T06:07:00;7.80;99.90
21238;DHT22;10777;50.828;3.264;2022-12-07T06:09:27;7.70;99.90
21238;DHT22;10777;50.828;3.264;2022-12-07T06:11:54;7.70;99.90
21238;DHT22;10777;50.828;3.264;2022-12-07T06:14:40;7.40;99.90
21238;DHT22;10777;50.828;3.264;2022-12-07T06:17:06;7.30;99.90
21238;DHT22;10777;50.828;3.264;2022-12-07T06:19:32;7.10;99.90
21238;DHT22;10777;50.828;3.264;2022-12-07T06:21:58;7.00;99.90
21238;DHT22;10777;50.828;3.264;2022-12-07T06:24:24;7.10;99.90
21238;DHT22;10777;50.828;3.264;2022-12-07T06:26:50;7.00;99.90
21238;DHT22;10777;50.828;3.264;2022-12-07T06:29:16;7.40;99.90
21238;DHT22;10777;50.828;3.264;2022-12-07T06:31:42;7.70;99.90
21238;DHT22;10777;50.828;3.264;2022-12-07T06:34:11;7.80;99.90
21238;DHT22;10777;50.828;3.264;2022-12-07T06:36:37;8.00;99.90
21238;DHT22;10777;50.828;3.264;2022-12-07T06:39:04;7.80;99.90
21238;DHT22;10777;50.828;3.264;2022-12-07T06:41:30;7.90;99.90
21238;DHT22;10777;50.828;3.264;2022-12-07T06:43:55;8.00;99.90
21238;DHT22;10777;50.828;3.264;2022-12-07T06:46:21;8.10;99.90
21238;DHT22;10777;50.828;3.264;2022-12-07T06:48:47;7.80;99.90
21238;DHT22;10777;50.828;3.264;2022-12-07T06:51:13;7.80;99.90
21238;DHT22;10777;50.828;3.264;2022-12-07T06:53:38;7.50;99.90
21238;DHT22;10777;50.828;3.264;2022-12-07T06:56:04;7.30;99.90
21238;DHT22;10777;50.828;3.264;2022-12-07T06:58:30;7.10;99.90
21238;DHT22;10777;50.828;3.264;2022-12-07T07:00:56;7.00;99.90
21238;DHT22;10777;50.828;3.264;2022-12-07T07:03:22;7.20;99.90
21238;DHT22;10777;50.828;3.264;2022-12-07T07:05:48;7.30;99.90
21238;DHT22;10777;50.828;3.264;2022-12-07T07:08:14;7.40;99.90
21238;DHT22;10777;50.828;3.264;2022-12-07T07:10:40;7.40;99.90
21238;DHT22;10777;50.828;3.264;2022-12-07T07:13:07;7.50;99.90
21238;DHT22;10777;50.828;3.264;2022-12-07T07:15:33;7.40;99.90
21238;DHT22;10777;50.828;3.264;2022-12-07T07:18:00;7.70;99.90
21238;DHT22;10777;50.828;3.264;2022-12-07T07:20:26;8.00;99.90
21238;DHT22;10777;50.828;3.264;2022-12-07T07:22:54;8.10;99.90
21238;DHT22;10777;50.828;3.264;2022-12-07T07:25:21;8.10;99.90
21238;DHT22;10777;50.828;3.264;2022-12-07T07:27:46;7.80;99.90
21238;DHT22;10777;50.828;3.264;2022-12-07T07:30:13;7.90;99.90
21238;DHT22;10777;50.828;3.264;2022-12-07T07:32:39;7.80;99.90
21238;DHT22;10777;50.828;3.264;2022-12-07T07:35:05;8.10;99.90
21238;DHT22;10777;50.828;3.264;2022-12-07T07:37:31;8.10;99.90
21238;DHT22;10777;50.828;3.264;2022-12-07T07:39:56;8.00;99.90
21238;DHT22;10777;50.828;3.264;2022-12-07T07:42:22;8.10;99.90
21238;DHT22;10777;50.828;3.264;2022-12-07T07:44:47;8.20;99.90
21238;DHT22;10777;50.828;3.264;2022-12-07T07:47:13;8.30;99.90
21238;DHT22;10777;50.828;3.264;2022-12-07T07:49:39;8.40;99.90
21238;DHT22;10777;50.828;3.264;2022-12-07T07:52:05;8.50;99.90
21238;DHT22;10777;50.828;3.264;2022-12-07T07:54:31;8.50;99.90
21238;DHT22;10777;50.828;3.264;2022-12-07T07:56:57;8.50;99.90
21238;DHT22;10777;50.828;3.264;2022-12-07T07:59:23;8.10;99.90
21238;DHT22;10777;50.828;3.264;2022-12-07T08:01:50;8.10;99.90
21238;DHT22;10777;50.828;3.264;2022-12-07T08:04:15;8.10;99.90
21238;DHT22;10777;50.828;3.264;2022-12-07T08:06:41;8.10;99.90
21238;DHT22;10777;50.828;3.264;2022-12-07T08:09:08;8.30;99.90
21238;DHT22;10777;50.828;3.264;2022-12-07T08:11:34;8.10;99.90
21238;DHT22;10777;50.828;3.264;2022-12-07T08:14:00;8.00;99.90
21238;DHT22;10777;50.828;3.264;2022-12-07T08:16:26;7.90;99.90
21238;DHT22;10777;50.828;3.264;2022-12-07T08:18:52;8.00;99.90
21238;DHT22;10777;50.828;3.264;2022-12-07T08:21:17;8.20;99.90
21238;DHT22;10777;50.828;3.264;2022-12-07T08:23:43;8.20;99.90
21238;DHT22;10777;50.828;3.264;2022-12-07T08:26:11;8.20;99.90
21238;DHT22;10777;50.828;3.264;2022-12-07T08:28:37;8.30;99.90
21238;DHT22;10777;50.828;3.264;2022-12-07T08:31:05;8.50;99.90
21238;DHT22;10777;50.828;3.264;2022-12-07T08:33:32;8.40;99.90
21238;DHT22;10777;50.828;3.264;2022-12-07T08:36:02;8.10;99.90
21238;DHT22;10777;50.828;3.264;2022-12-07T08:38:28;8.10;99.90
21238;DHT22;10777;50.828;3.264;2022-12-07T08:40:55;8.10;99.90
21238;DHT22;10777;50.828;3.264;2022-12-07T08:43:21;7.90;99.90
21238;DHT22;10777;50.828;3.264;2022-12-07T08:45:50;7.70;99.90
21238;DHT22;10777;50.828;3.264;2022-12-07T08:48:19;7.50;99.90
21238;DHT22;10777;50.828;3.264;2022-12-07T08:50:47;7.50;99.90
21238;DHT22;10777;50.828;3.264;2022-12-07T08:53:14;7.40;99.90
21238;DHT22;10777;50.828;3.264;2022-12-07T08:55:39;7.50;99.90
21238;DHT22;10777;50.828;3.264;2022-12-07T08:58:05;7.70;99.90
21238;DHT22;10777;50.828;3.264;2022-12-07T09:00:31;8.10;99.90
21238;DHT22;10777;50.828;3.264;2022-12-07T09:02:57;8.40;99.90
21238;DHT22;10777;50.828;3.264;2022-12-07T09:05:22;8.50;99.90
21238;DHT22;10777;50.828;3.264;2022-12-07T09:07:51;8.60;99.90
21238;DHT22;10777;50.828;3.264;2022-12-07T09:10:18;8.90;99.90
21238;DHT22;10777;50.828;3.264;2022-12-07T09:12:44;8.90;99.90
21238;DHT22;10777;50.828;3.264;2022-12-07T09:15:09;9.10;99.90
21238;DHT22;10777;50.828;3.264;2022-12-07T09:17:35;9.10;99.90
21238;DHT22;10777;50.828;3.264;2022-12-07T09:20:02;9.50;99.90
21238;DHT22;10777;50.828;3.264;2022-12-07T09:22:30;9.50;99.90
21238;DHT22;10777;50.828;3.264;2022-12-07T09:24:57;9.20;99.90
21238;DHT22;10777;50.828;3.264;2022-12-07T09:27:22;9.10;99.90
21238;DHT22;10777;50.828;3.264;2022-12-07T09:29:48;8.90;99.90
21238;DHT22;10777;50.828;3.264;2022-12-07T09:32:14;9.00;99.90
21238;DHT22;10777;50.828;3.264;2022-12-07T09:34:39;9.10;99.90
21238;DHT22;10777;50.828;3.264;2022-12-07T09:37:05;9.00;99.90
21238;DHT22;10777;50.828;3.264;2022-12-07T09:39:32;9.10;99.90
21238;DHT22;10777;50.828;3.264;2022-12-07T09:41:58;9.30;99.90
21238;DHT22;10777;50.828;3.264;2022-12-07T09:44:25;9.20;99.90
21238;DHT22;10777;50.828;3.264;2022-12-07T09:46:52;9.40;99.90
21238;DHT22;10777;50.828;3.264;2022-12-07T09:49:21;9.50;99.90
21238;DHT22;10777;50.828;3.264;2022-12-07T09:51:48;9.40;99.90
21238;DHT22;10777;50.828;3.264;2022-12-07T09:54:24;9.10;99.90
21238;DHT22;10777;50.828;3.264;2022-12-07T09:56:50;9.40;99.90
21238;DHT22;10777;50.828;3.264;2022-12-07T09:59:17;9.60;99.90
21238;DHT22;10777;50.828;3.264;2022-12-07T10:01:45;9.80;99.90
21238;DHT22;10777;50.828;3.264;2022-12-07T10:04:16;10.00;99.90
21238;DHT22;10777;50.828;3.264;2022-12-07T10:06:43;10.10;99.90
21238;DHT22;10777;50.828;3.264;2022-12-07T10:09:11;9.80;99.90
21238;DHT22;10777;50.828;3.264;2022-12-07T10:11:58;9.70;99.90
21238;DHT22;10777;50.828;3.264;2022-12-07T10:14:28;9.70;99.90
21238;DHT22;10777;50.828;3.264;2022-12-07T10:16:54;9.60;99.90
21238;DHT22;10777;50.828;3.264;2022-12-07T10:19:30;9.50;99.90
21238;DHT22;10777;50.828;3.264;2022-12-07T10:22:15;9.40;99.90
21238;DHT22;10777;50.828;3.264;2022-12-07T10:24:43;9.40;99.90
21238;DHT22;10777;50.828;3.264;2022-12-07T10:27:30;9.70;99.90
21238;DHT22;10777;50.828;3.264;2022-12-07T10:29:57;9.50;99.90
21238;DHT22;10777;50.828;3.264;2022-12-07T10:32:34;9.50;99.90
21238;DHT22;10777;50.828;3.264;2022-12-07T10:35:22;9.60;99.90
21238;DHT22;10777;50.828;3.264;2022-12-07T10:37:49;9.40;99.90
21238;DHT22;10777;50.828;3.264;2022-12-07T10:40:33;9.60;99.90
21238;DHT22;10777;50.828;3.264;2022-12-07T10:43:05;9.70;99.90
21238;DHT22;10777;50.828;3.264;2022-12-07T10:45:32;9.90;99.90
21238;DHT22;10777;50.828;3.264;2022-12-07T10:48:13;10.20;99.90
21238;DHT22;10777;50.828;3.264;2022-12-07T10:50:58;10.20;99.90
21238;DHT22;10777;50.828;3.264;2022-12-07T10:53:36;10.60;99.90
21238;DHT22;10777;50.828;3.264;2022-12-07T10:56:23;10.90;99.90
21238;DHT22;10777;50.828;3.264;2022-12-07T10:59:18;10.80;99.90
21238;DHT22;10777;50.828;3.264;2022-12-07T11:01:54;10.80;99.90
21238;DHT22;10777;50.828;3.264;2022-12-07T11:07:44;10.60;99.90
21238;DHT22;10777;50.828;3.264;2022-12-07T11:10:41;10.20;99.90
21238;DHT22;10777;50.828;3.264;2022-12-07T11:16:16;10.40;99.90
21238;DHT22;10777;50.828;3.264;2022-12-07T11:19:16;10.60;99.90
21238;DHT22;10777;50.828;3.264;2022-12-07T11:21:57;10.70;99.90
21238;DHT22;10777;50.828;3.264;2022-12-07T11:24:48;10.60;99.90
21238;DHT22;10777;50.828;3.264;2022-12-07T11:27:29;10.50;99.90
21238;DHT22;10777;50.828;3.264;2022-12-07T11:30:19;10.40;99.90
21238;DHT22;10777;50.828;3.264;2022-12-07T11:33:11;10.50;99.90
21238;DHT22;10777;50.828;3.264;2022-12-07T11:38:46;10.00;99.90
21238;DHT22;10777;50.828;3.264;2022-12-07T11:41:15;9.90;99.90
21238;DHT22;10777;50.828;3.264;2022-12-07T11:44:06;10.00;99.90
21238;DHT22;10777;50.828;3.264;2022-12-07T11:46:46;10.20;99.90
21238;DHT22;10777;50.828;3.264;2022-12-07T11:49:19;10.30;99.90
21238;DHT22;10777;50.828;3.264;2022-12-07T11:51:50;10.10;99.90
21238;DHT22;10777;50.828;3.264;2022-12-07T11:54:23;10.20;99.90
21238;DHT22;10777;50.828;3.264;2022-12-07T11:56:51;10.30;99.90
21238;DHT22;10777;50.828;3.264;2022-12-07T11:59:27;10.10;99.90
21238;DHT22;10777;50.828;3.264;2022-12-07T12:02:08;10.10;99.90
21238;DHT22;10777;50.828;3.264;2022-12-07T12:04:54;9.90;99.90
21238;DHT22;10777;50.828;3.264;2022-12-07T12:07:23;10.10;99.90
21238;DHT22;10777;50.828;3.264;2022-12-07T12:09:56;10.10;99.90
21238;DHT22;10777;50.828;3.264;2022-12-07T12:12:52;9.90;99.90
21238;DHT22;10777;50.828;3.264;2022-12-07T12:15:37;9.80;99.90
21238;DHT22;10777;50.828;3.264;2022-12-07T12:18:18;9.10;99.90
21238;DHT22;10777;50.828;3.264;2022-12-07T12:20:54;9.10;99.90
21238;DHT22;10777;50.828;3.264;2022-12-07T12:23:27;9.20;99.90
21238;DHT22;10777;50.828;3.264;2022-12-07T12:26:01;9.40;99.90
21238;DHT22;10777;50.828;3.264;2022-12-07T12:28:40;9.40;99.90
21238;DHT22;10777;50.828;3.264;2022-12-07T12:33:58;8.70;99.90
21238;DHT22;10777;50.828;3.264;2022-12-07T12:36:45;8.50;99.90
21238;DHT22;10777;50.828;3.264;2022-12-07T12:39:16;8.60;99.90
21238;DHT22;10777;50.828;3.264;2022-12-07T12:41:54;8.90;99.90
21238;DHT22;10777;50.828;3.264;2022-12-07T12:44:40;8.60;99.90
21238;DHT22;10777;50.828;3.264;2022-12-07T12:47:42;8.20;99.90
21238;DHT22;10777;50.828;3.264;2022-12-07T12:50:27;8.50;99.90
21238;DHT22;10777;50.828;3.264;2022-12-07T12:52:56;8.60;99.90
21238;DHT22;10777;50.828;3.264;2022-12-07T12:55:48;8.70;99.90
21238;DHT22;10777;50.828;3.264;2022-12-07T12:58:29;8.80;99.90
21238;DHT22;10777;50.828;3.264;2022-12-07T13:01:36;9.00;99.90
21238;DHT22;10777;50.828;3.264;2022-12-07T13:04:02;8.80;99.90
21238;DHT22;10777;50.828;3.264;2022-12-07T13:06:40;8.60;99.90
21238;DHT22;10777;50.828;3.264;2022-12-07T13:09:27;8.80;99.90
21238;DHT22;10777;50.828;3.264;2022-12-07T13:12:00;8.90;99.90
21238;DHT22;10777;50.828;3.264;2022-12-07T13:14:51;9.00;99.90
21238;DHT22;10777;50.828;3.264;2022-12-07T13:17:55;9.30;99.90
21238;DHT22;10777;50.828;3.264;2022-12-07T13:23:54;9.50;99.90
21238;DHT22;10777;50.828;3.264;2022-12-07T13:26:41;9.60;99.90
21238;DHT22;10777;50.828;3.264;2022-12-07T13:29:13;9.70;99.90
21238;DHT22;10777;50.828;3.264;2022-12-07T13:31:43;9.80;99.90
21238;DHT22;10777;50.828;3.264;2022-12-07T13:34:33;9.70;99.90
21238;DHT22;10777;50.828;3.264;2022-12-07T13:37:04;9.70;99.90
21238;DHT22;10777;50.828;3.264;2022-12-07T13:39:33;9.70;99.90
21238;DHT22;10777;50.828;3.264;2022-12-07T13:42:11;9.80;99.90
21238;DHT22;10777;50.828;3.264;2022-12-07T13:44:40;9.60;99.90
21238;DHT22;10777;50.828;3.264;2022-12-07T13:50:24;9.80;99.90
21238;DHT22;10777;50.828;3.264;2022-12-07T13:52:50;9.60;99.90
21238;DHT22;10777;50.828;3.264;2022-12-07T13:55:19;9.60;99.90
21238;DHT22;10777;50.828;3.264;2022-12-07T13:57:48;9.40;99.90
21238;DHT22;10777;50.828;3.264;2022-12-07T14:00:19;9.50;99.90
21238;DHT22;10777;50.828;3.264;2022-12-07T14:02:59;9.40;99.90
21238;DHT22;10777;50.828;3.264;2022-12-07T14:05:30;9.40;99.90
21238;DHT22;10777;50.828;3.264;2022-12-07T14:08:01;9.50;99.90
21238;DHT22;10777;50.828;3.264;2022-12-07T14:10:34;9.40;99.90
21238;DHT22;10777;50.828;3.264;2022-12-07T14:13:02;9.20;99.90
21238;DHT22;10777;50.828;3.264;2022-12-07T14:15:33;9.40;99.90
21238;DHT22;10777;50.828;3.264;2022-12-07T14:18:01;9.00;99.90
21238;DHT22;10777;50.828;3.264;2022-12-07T14:20:35;8.80;99.90
21238;DHT22;10777;50.828;3.264;2022-12-07T14:23:02;8.80;99.90
21238;DHT22;10777;50.828;3.264;2022-12-07T14:25:46;8.70;99.90
21238;DHT22;10777;50.828;3.264;2022-12-07T14:28:33;8.50;99.90
21238;DHT22;10777;50.828;3.264;2022-12-07T14:31:00;8.10;99.90
21238;DHT22;10777;50.828;3.264;2022-12-07T14:33:27;7.80;99.90
21238;DHT22;10777;50.828;3.264;2022-12-07T14:35:53;7.70;99.90
21238;DHT22;10777;50.828;3.264;2022-12-07T14:38:21;7.30;99.90
21238;DHT22;10777;50.828;3.264;2022-12-07T14:40:48;7.30;99.90
21238;DHT22;10777;50.828;3.264;2022-12-07T14:43:16;7.10;99.90
21238;DHT22;10777;50.828;3.264;2022-12-07T14:45:42;7.10;99.90
21238;DHT22;10777;50.828;3.264;2022-12-07T14:48:11;7.40;99.90
21238;DHT22;10777;50.828;3.264;2022-12-07T14:50:40;7.80;99.90
21238;DHT22;10777;50.828;3.264;2022-12-07T14:53:15;7.90;99.90
21238;DHT22;10777;50.828;3.264;2022-12-07T14:55:42;8.20;99.90
21238;DHT22;10777;50.828;3.264;2022-12-07T14:58:14;8.40;99.90
21238;DHT22;10777;50.828;3.264;2022-12-07T15:00:40;8.50;99.90
21238;DHT22;10777;50.828;3.264;2022-12-07T15:03:06;8.40;99.90
21238;DHT22;10777;50.828;3.264;2022-12-07T15:05:32;8.60;99.90
21238;DHT22;10777;50.828;3.264;2022-12-07T15:07:58;8.90;99.90
21238;DHT22;10777;50.828;3.264;2022-12-07T15:10:27;8.90;99.90
21238;DHT22;10777;50.828;3.264;2022-12-07T15:12:56;8.80;99.90
21238;DHT22;10777;50.828;3.264;2022-12-07T15:15:42;8.90;99.90
21238;DHT22;10777;50.828;3.264;2022-12-07T15:18:08;8.90;99.90
21238;DHT22;10777;50.828;3.264;2022-12-07T15:20:33;8.90;99.90
21238;DHT22;10777;50.828;3.264;2022-12-07T15:22:59;9.00;99.90
21238;DHT22;10777;50.828;3.264;2022-12-07T15:25:25;9.00;99.90
21238;DHT22;10777;50.828;3.264;2022-12-07T15:27:50;8.60;99.90
21238;DHT22;10777;50.828;3.264;2022-12-07T15:30:16;7.90;99.90
21238;DHT22;10777;50.828;3.264;2022-12-07T15:32:42;7.60;99.90
21238;DHT22;10777;50.828;3.264;2022-12-07T15:35:07;7.30;99.90
21238;DHT22;10777;50.828;3.264;2022-12-07T15:37:33;7.10;99.90
21238;DHT22;10777;50.828;3.264;2022-12-07T15:39:59;7.00;99.90
21238;DHT22;10777;50.828;3.264;2022-12-07T15:42:25;6.80;99.90
21238;DHT22;10777;50.828;3.264;2022-12-07T15:44:50;6.90;99.90
21238;DHT22;10777;50.828;3.264;2022-12-07T15:47:35;6.80;99.90
21238;DHT22;10777;50.828;3.264;2022-12-07T15:50:03;7.30;99.90
21238;DHT22;10777;50.828;3.264;2022-12-07T15:52:30;7.50;99.90
21238;DHT22;10777;50.828;3.264;2022-12-07T15:54:55;7.90;99.90
21238;DHT22;10777;50.828;3.264;2022-12-07T15:57:21;8.10;99.90
21238;DHT22;10777;50.828;3.264;2022-12-07T15:59:47;8.20;99.90
21238;DHT22;10777;50.828;3.264;2022-12-07T16:02:13;8.40;99.90
21238;DHT22;10777;50.828;3.264;2022-12-07T16:04:38;8.30;99.90
21238;DHT22;10777;50.828;3.264;2022-12-07T16:07:04;8.30;99.90
21238;DHT22;10777;50.828;3.264;2022-12-07T16:09:30;8.30;99.90
21238;DHT22;10777;50.828;3.264;2022-12-07T16:11:56;8.30;99.90
21238;DHT22;10777;50.828;3.264;2022-12-07T16:14:22;8.50;99.90
21238;DHT22;10777;50.828;3.264;2022-12-07T16:16:48;8.80;99.90
21238;DHT22;10777;50.828;3.264;2022-12-07T16:19:14;8.90;99.90
21238;DHT22;10777;50.828;3.264;2022-12-07T16:21:40;8.80;99.90
21238;DHT22;10777;50.828;3.264;2022-12-07T16:24:06;8.70;99.90
21238;DHT22;10777;50.828;3.264;2022-12-07T16:26:32;8.80;99.90